sensor_id;sensor_type;location;lat;lon;timestamp;P1;durP1;ratioP1;P2;durP2;ratioP2
40669;SDS011;26355;45.528;9.234;2022-10-19T00:01:55;41.33;;;29.45;;
40669;SDS011;26355;45.528;9.234;2022-10-19T00:04:20;38.28;;;27.33;;
40669;SDS011;26355;45.528;9.234;2022-10-19T00:06:46;38.83;;;28.00;;
40669;SDS011;26355;45.528;9.234;2022-10-19T00:09:13;40.80;;;28.27;;
40669;SDS011;26355;45.528;9.234;2022-10-19T00:11:42;39.13;;;27.30;;
40669;SDS011;26355;45.528;9.234;2022-10-19T00:14:13;42.80;;;27.88;;
40669;SDS011;26355;45.528;9.234;2022-10-19T00:16:42;41.50;;;27.55;;
40669;SDS011;26355;45.528;9.234;2022-10-19T00:19:11;39.13;;;27.85;;
40669;SDS011;26355;45.528;9.234;2022-10-19T00:21:38;42.42;;;28.55;;
40669;SDS011;26355;45.528;9.234;2022-10-19T00:24:05;38.90;;;28.63;;
40669;SDS011;26355;45.528;9.234;2022-10-19T00:26:31;42.35;;;28.15;;
40669;SDS011;26355;45.528;9.234;2022-10-19T00:28:56;40.88;;;29.88;;
40669;SDS011;26355;45.528;9.234;2022-10-19T00:31:22;40.63;;;28.75;;
40669;SDS011;26355;45.528;9.234;2022-10-19T00:33:49;41.38;;;28.52;;
40669;SDS011;26355;45.528;9.234;2022-10-19T00:36:16;40.17;;;28.00;;
40669;SDS011;26355;45.528;9.234;2022-10-19T00:38:45;41.33;;;28.38;;
40669;SDS011;26355;45.528;9.234;2022-10-19T00:41:11;40.95;;;29.02;;
40669;SDS011;26355;45.528;9.234;2022-10-19T00:43:54;40.65;;;28.90;;
40669;SDS011;26355;45.528;9.234;2022-10-19T00:46:32;41.10;;;28.35;;
40669;SDS011;26355;45.528;9.234;2022-10-19T00:49:07;39.63;;;28.13;;
40669;SDS011;26355;45.528;9.234;2022-10-19T00:51:37;39.27;;;28.07;;
40669;SDS011;26355;45.528;9.234;2022-10-19T00:54:05;41.92;;;29.23;;
40669;SDS011;26355;45.528;9.234;2022-10-19T00:58:58;39.05;;;27.23;;
40669;SDS011;26355;45.528;9.234;2022-10-19T01:01:23;41.10;;;28.58;;
40669;SDS011;26355;45.528;9.234;2022-10-19T01:03:51;40.78;;;27.80;;
40669;SDS011;26355;45.528;9.234;2022-10-19T01:06:17;39.60;;;28.10;;
40669;SDS011;26355;45.528;9.234;2022-10-19T01:08:43;40.92;;;28.45;;
40669;SDS011;26355;45.528;9.234;2022-10-19T01:14:10;43.85;;;30.38;;
40669;SDS011;26355;45.528;9.234;2022-10-19T01:27:26;49.55;;;30.63;;
40669;SDS011;26355;45.528;9.234;2022-10-19T01:30:20;41.67;;;29.00;;
40669;SDS011;26355;45.528;9.234;2022-10-19T01:33:13;39.10;;;28.92;;
40669;SDS011;26355;45.528;9.234;2022-10-19T01:35:53;41.60;;;28.33;;
40669;SDS011;26355;45.528;9.234;2022-10-19T01:38:50;41.90;;;29.23;;
40669;SDS011;26355;45.528;9.234;2022-10-19T01:41:44;45.97;;;29.88;;
40669;SDS011;26355;45.528;9.234;2022-10-19T01:44:16;41.42;;;28.63;;
40669;SDS011;26355;45.528;9.234;2022-10-19T01:46:51;38.53;;;27.98;;
40669;SDS011;26355;45.528;9.234;2022-10-19T01:49:30;41.45;;;30.05;;
40669;SDS011;26355;45.528;9.234;2022-10-19T01:52:02;43.03;;;28.88;;
40669;SDS011;26355;45.528;9.234;2022-10-19T01:54:31;39.03;;;27.05;;
40669;SDS011;26355;45.528;9.234;2022-10-19T01:57:03;39.63;;;27.77;;
40669;SDS011;26355;45.528;9.234;2022-10-19T01:59:31;38.88;;;26.17;;
40669;SDS011;26355;45.528;9.234;2022-10-19T02:01:58;37.10;;;25.13;;
40669;SDS011;26355;45.528;9.234;2022-10-19T02:04:26;40.63;;;26.58;;
40669;SDS011;26355;45.528;9.234;2022-10-19T02:06:52;39.10;;;24.85;;
40669;SDS011;26355;45.528;9.234;2022-10-19T02:09:19;36.13;;;23.63;;
40669;SDS011;26355;45.528;9.234;2022-10-19T02:11:45;41.70;;;26.88;;
40669;SDS011;26355;45.528;9.234;2022-10-19T02:14:19;37.45;;;24.85;;
40669;SDS011;26355;45.528;9.234;2022-10-19T02:16:50;35.70;;;24.17;;
40669;SDS011;26355;45.528;9.234;2022-10-19T02:19:29;35.97;;;23.33;;
40669;SDS011;26355;45.528;9.234;2022-10-19T02:21:55;37.20;;;24.65;;
40669;SDS011;26355;45.528;9.234;2022-10-19T02:24:21;35.30;;;23.30;;
40669;SDS011;26355;45.528;9.234;2022-10-19T02:26:47;35.60;;;24.63;;
40669;SDS011;26355;45.528;9.234;2022-10-19T02:29:14;33.65;;;23.38;;
40669;SDS011;26355;45.528;9.234;2022-10-19T02:31:40;35.97;;;23.75;;
40669;SDS011;26355;45.528;9.234;2022-10-19T02:34:06;35.70;;;23.92;;
40669;SDS011;26355;45.528;9.234;2022-10-19T02:36:32;33.92;;;22.58;;
40669;SDS011;26355;45.528;9.234;2022-10-19T02:38:58;34.38;;;21.88;;
40669;SDS011;26355;45.528;9.234;2022-10-19T02:41:31;32.03;;;22.00;;
40669;SDS011;26355;45.528;9.234;2022-10-19T02:44:21;32.22;;;21.23;;
40669;SDS011;26355;45.528;9.234;2022-10-19T02:46:54;32.20;;;21.67;;
40669;SDS011;26355;45.528;9.234;2022-10-19T02:49:26;31.90;;;21.42;;
40669;SDS011;26355;45.528;9.234;2022-10-19T02:51:56;35.00;;;21.52;;
40669;SDS011;26355;45.528;9.234;2022-10-19T02:54:24;35.33;;;21.88;;
40669;SDS011;26355;45.528;9.234;2022-10-19T02:56:50;33.85;;;23.15;;
40669;SDS011;26355;45.528;9.234;2022-10-19T02:59:15;31.73;;;21.80;;
40669;SDS011;26355;45.528;9.234;2022-10-19T03:01:41;32.67;;;23.48;;
40669;SDS011;26355;45.528;9.234;2022-10-19T03:04:07;32.03;;;22.42;;
40669;SDS011;26355;45.528;9.234;2022-10-19T03:06:32;32.33;;;21.25;;
40669;SDS011;26355;45.528;9.234;2022-10-19T03:08:58;33.38;;;21.50;;
40669;SDS011;26355;45.528;9.234;2022-10-19T03:11:23;33.00;;;22.50;;
40669;SDS011;26355;45.528;9.234;2022-10-19T03:13:49;32.70;;;21.88;;
40669;SDS011;26355;45.528;9.234;2022-10-19T03:16:15;32.95;;;21.45;;
40669;SDS011;26355;45.528;9.234;2022-10-19T03:18:40;33.28;;;22.08;;
40669;SDS011;26355;45.528;9.234;2022-10-19T03:21:10;34.75;;;21.92;;
40669;SDS011;26355;45.528;9.234;2022-10-19T03:23:37;33.40;;;21.17;;
40669;SDS011;26355;45.528;9.234;2022-10-19T03:26:04;33.72;;;21.20;;
40669;SDS011;26355;45.528;9.234;2022-10-19T03:28:30;31.45;;;20.88;;
40669;SDS011;26355;45.528;9.234;2022-10-19T03:30:57;32.63;;;21.30;;
40669;SDS011;26355;45.528;9.234;2022-10-19T03:33:23;34.00;;;20.77;;
40669;SDS011;26355;45.528;9.234;2022-10-19T03:35:49;31.63;;;21.88;;
40669;SDS011;26355;45.528;9.234;2022-10-19T03:38:15;34.50;;;22.63;;
40669;SDS011;26355;45.528;9.234;2022-10-19T03:40:41;33.58;;;22.05;;
40669;SDS011;26355;45.528;9.234;2022-10-19T03:43:06;32.28;;;21.10;;
40669;SDS011;26355;45.528;9.234;2022-10-19T03:45:32;33.53;;;22.92;;
40669;SDS011;26355;45.528;9.234;2022-10-19T03:47:58;30.13;;;20.63;;
40669;SDS011;26355;45.528;9.234;2022-10-19T03:50:23;32.78;;;20.80;;
40669;SDS011;26355;45.528;9.234;2022-10-19T03:52:49;32.13;;;21.60;;
40669;SDS011;26355;45.528;9.234;2022-10-19T03:55:15;34.63;;;20.88;;
40669;SDS011;26355;45.528;9.234;2022-10-19T03:57:41;32.95;;;21.52;;
40669;SDS011;26355;45.528;9.234;2022-10-19T04:00:07;32.10;;;22.15;;
40669;SDS011;26355;45.528;9.234;2022-10-19T04:02:34;32.28;;;21.45;;
40669;SDS011;26355;45.528;9.234;2022-10-19T04:04:59;33.17;;;22.90;;
40669;SDS011;26355;45.528;9.234;2022-10-19T04:07:25;32.65;;;21.70;;
40669;SDS011;26355;45.528;9.234;2022-10-19T04:09:51;31.75;;;22.10;;
40669;SDS011;26355;45.528;9.234;2022-10-19T04:12:17;32.60;;;21.70;;
40669;SDS011;26355;45.528;9.234;2022-10-19T04:14:42;34.22;;;23.35;;
40669;SDS011;26355;45.528;9.234;2022-10-19T04:17:08;34.00;;;22.58;;
40669;SDS011;26355;45.528;9.234;2022-10-19T04:19:34;33.10;;;22.98;;
40669;SDS011;26355;45.528;9.234;2022-10-19T04:22:00;35.08;;;22.88;;
40669;SDS011;26355;45.528;9.234;2022-10-19T04:24:26;32.55;;;22.08;;
40669;SDS011;26355;45.528;9.234;2022-10-19T04:26:52;34.60;;;22.70;;
40669;SDS011;26355;45.528;9.234;2022-10-19T04:29:19;35.10;;;22.10;;
40669;SDS011;26355;45.528;9.234;2022-10-19T04:31:47;32.60;;;23.08;;
40669;SDS011;26355;45.528;9.234;2022-10-19T04:34:14;33.83;;;21.65;;
40669;SDS011;26355;45.528;9.234;2022-10-19T04:36:40;32.92;;;21.02;;
40669;SDS011;26355;45.528;9.234;2022-10-19T04:39:06;34.42;;;23.08;;
40669;SDS011;26355;45.528;9.234;2022-10-19T04:41:32;33.55;;;21.52;;
40669;SDS011;26355;45.528;9.234;2022-10-19T04:43:59;34.15;;;22.33;;
40669;SDS011;26355;45.528;9.234;2022-10-19T04:46:26;34.60;;;22.83;;
40669;SDS011;26355;45.528;9.234;2022-10-19T04:48:53;32.67;;;21.80;;
40669;SDS011;26355;45.528;9.234;2022-10-19T04:51:20;34.97;;;22.83;;
40669;SDS011;26355;45.528;9.234;2022-10-19T04:53:46;37.35;;;22.80;;
40669;SDS011;26355;45.528;9.234;2022-10-19T04:56:14;32.25;;;21.73;;
40669;SDS011;26355;45.528;9.234;2022-10-19T04:58:42;32.80;;;20.55;;
40669;SDS011;26355;45.528;9.234;2022-10-19T05:01:09;33.38;;;21.65;;
40669;SDS011;26355;45.528;9.234;2022-10-19T05:03:36;32.05;;;20.80;;
40669;SDS011;26355;45.528;9.234;2022-10-19T05:06:02;32.53;;;19.95;;
40669;SDS011;26355;45.528;9.234;2022-10-19T05:08:28;30.70;;;20.65;;
40669;SDS011;26355;45.528;9.234;2022-10-19T05:10:53;34.88;;;22.42;;
40669;SDS011;26355;45.528;9.234;2022-10-19T05:13:19;32.47;;;21.75;;
40669;SDS011;26355;45.528;9.234;2022-10-19T05:15:53;35.08;;;21.33;;
40669;SDS011;26355;45.528;9.234;2022-10-19T05:18:20;31.27;;;20.25;;
40669;SDS011;26355;45.528;9.234;2022-10-19T05:20:45;34.47;;;21.20;;
40669;SDS011;26355;45.528;9.234;2022-10-19T05:23:11;31.85;;;20.90;;
40669;SDS011;26355;45.528;9.234;2022-10-19T05:25:36;32.05;;;19.52;;
40669;SDS011;26355;45.528;9.234;2022-10-19T05:28:02;31.17;;;19.52;;
40669;SDS011;26355;45.528;9.234;2022-10-19T05:30:28;33.53;;;20.13;;
40669;SDS011;26355;45.528;9.234;2022-10-19T05:32:53;30.90;;;19.52;;
40669;SDS011;26355;45.528;9.234;2022-10-19T05:35:19;33.08;;;19.42;;
40669;SDS011;26355;45.528;9.234;2022-10-19T05:37:45;35.00;;;19.60;;
40669;SDS011;26355;45.528;9.234;2022-10-19T05:40:11;30.15;;;19.27;;
40669;SDS011;26355;45.528;9.234;2022-10-19T05:42:36;39.42;;;21.25;;
40669;SDS011;26355;45.528;9.234;2022-10-19T05:45:02;32.30;;;19.48;;
40669;SDS011;26355;45.528;9.234;2022-10-19T05:47:28;31.92;;;19.88;;
40669;SDS011;26355;45.528;9.234;2022-10-19T05:49:54;32.53;;;19.50;;
40669;SDS011;26355;45.528;9.234;2022-10-19T05:52:19;31.92;;;19.63;;
40669;SDS011;26355;45.528;9.234;2022-10-19T05:54:46;36.90;;;21.10;;
40669;SDS011;26355;45.528;9.234;2022-10-19T05:57:11;34.60;;;20.83;;
40669;SDS011;26355;45.528;9.234;2022-10-19T05:59:37;34.05;;;19.55;;
40669;SDS011;26355;45.528;9.234;2022-10-19T06:02:02;35.08;;;21.27;;
40669;SDS011;26355;45.528;9.234;2022-10-19T06:04:28;34.63;;;20.70;;
40669;SDS011;26355;45.528;9.234;2022-10-19T06:06:54;34.35;;;19.13;;
40669;SDS011;26355;45.528;9.234;2022-10-19T06:09:19;32.05;;;19.90;;
40669;SDS011;26355;45.528;9.234;2022-10-19T06:11:45;32.88;;;19.77;;
40669;SDS011;26355;45.528;9.234;2022-10-19T06:14:13;34.50;;;19.85;;
40669;SDS011;26355;45.528;9.234;2022-10-19T06:16:40;36.22;;;22.13;;
40669;SDS011;26355;45.528;9.234;2022-10-19T06:19:06;32.22;;;20.13;;
40669;SDS011;26355;45.528;9.234;2022-10-19T06:21:32;35.28;;;20.48;;
40669;SDS011;26355;45.528;9.234;2022-10-19T06:24:02;33.05;;;19.05;;
40669;SDS011;26355;45.528;9.234;2022-10-19T06:26:29;36.50;;;19.10;;
40669;SDS011;26355;45.528;9.234;2022-10-19T06:28:56;31.98;;;19.00;;
40669;SDS011;26355;45.528;9.234;2022-10-19T06:31:24;31.77;;;18.20;;
40669;SDS011;26355;45.528;9.234;2022-10-19T06:33:53;28.85;;;18.02;;
40669;SDS011;26355;45.528;9.234;2022-10-19T06:36:20;30.58;;;18.40;;
40669;SDS011;26355;45.528;9.234;2022-10-19T06:38:47;29.02;;;16.83;;
40669;SDS011;26355;45.528;9.234;2022-10-19T06:41:13;27.63;;;17.13;;
40669;SDS011;26355;45.528;9.234;2022-10-19T06:43:39;28.95;;;16.48;;
40669;SDS011;26355;45.528;9.234;2022-10-19T06:46:07;27.10;;;16.48;;
40669;SDS011;26355;45.528;9.234;2022-10-19T06:48:35;28.33;;;14.98;;
40669;SDS011;26355;45.528;9.234;2022-10-19T06:51:01;26.05;;;15.63;;
40669;SDS011;26355;45.528;9.234;2022-10-19T06:53:28;26.17;;;15.38;;
40669;SDS011;26355;45.528;9.234;2022-10-19T06:55:59;25.83;;;15.37;;
40669;SDS011;26355;45.528;9.234;2022-10-19T06:58:25;27.02;;;15.88;;
40669;SDS011;26355;45.528;9.234;2022-10-19T07:00:55;27.73;;;15.32;;
40669;SDS011;26355;45.528;9.234;2022-10-19T07:03:23;27.50;;;15.32;;
40669;SDS011;26355;45.528;9.234;2022-10-19T07:05:56;25.17;;;14.50;;
40669;SDS011;26355;45.528;9.234;2022-10-19T07:08:24;28.23;;;14.57;;
40669;SDS011;26355;45.528;9.234;2022-10-19T07:10:51;25.95;;;15.10;;
40669;SDS011;26355;45.528;9.234;2022-10-19T07:13:17;25.42;;;13.93;;
40669;SDS011;26355;45.528;9.234;2022-10-19T07:15:44;24.10;;;12.97;;
40669;SDS011;26355;45.528;9.234;2022-10-19T07:18:10;24.58;;;14.20;;
40669;SDS011;26355;45.528;9.234;2022-10-19T07:20:35;29.90;;;16.20;;
40669;SDS011;26355;45.528;9.234;2022-10-19T07:23:01;28.80;;;17.70;;
40669;SDS011;26355;45.528;9.234;2022-10-19T07:25:27;28.27;;;17.67;;
40669;SDS011;26355;45.528;9.234;2022-10-19T07:27:54;35.10;;;18.33;;
40669;SDS011;26355;45.528;9.234;2022-10-19T07:30:20;30.45;;;18.65;;
40669;SDS011;26355;45.528;9.234;2022-10-19T07:32:45;28.98;;;18.35;;
40669;SDS011;26355;45.528;9.234;2022-10-19T07:35:11;28.50;;;17.95;;
40669;SDS011;26355;45.528;9.234;2022-10-19T07:37:36;31.85;;;18.63;;
40669;SDS011;26355;45.528;9.234;2022-10-19T07:40:02;28.90;;;17.70;;
40669;SDS011;26355;45.528;9.234;2022-10-19T07:42:28;30.60;;;17.90;;
40669;SDS011;26355;45.528;9.234;2022-10-19T07:44:57;30.77;;;17.73;;
40669;SDS011;26355;45.528;9.234;2022-10-19T07:47:22;28.38;;;17.13;;
40669;SDS011;26355;45.528;9.234;2022-10-19T07:49:48;27.95;;;16.75;;
40669;SDS011;26355;45.528;9.234;2022-10-19T07:52:14;31.65;;;18.33;;
40669;SDS011;26355;45.528;9.234;2022-10-19T07:54:39;28.90;;;17.30;;
40669;SDS011;26355;45.528;9.234;2022-10-19T07:57:05;29.40;;;15.43;;
40669;SDS011;26355;45.528;9.234;2022-10-19T07:59:31;25.13;;;12.88;;
40669;SDS011;26355;45.528;9.234;2022-10-19T08:01:56;23.13;;;11.98;;
40669;SDS011;26355;45.528;9.234;2022-10-19T08:04:23;22.00;;;11.97;;
40669;SDS011;26355;45.528;9.234;2022-10-19T08:06:48;22.23;;;11.18;;
40669;SDS011;26355;45.528;9.234;2022-10-19T08:09:14;21.42;;;11.77;;
40669;SDS011;26355;45.528;9.234;2022-10-19T08:11:40;23.90;;;11.10;;
40669;SDS011;26355;45.528;9.234;2022-10-19T08:14:05;23.90;;;12.20;;
40669;SDS011;26355;45.528;9.234;2022-10-19T08:19:01;28.65;;;13.00;;
40669;SDS011;26355;45.528;9.234;2022-10-19T08:21:32;23.02;;;12.07;;
40669;SDS011;26355;45.528;9.234;2022-10-19T08:23:59;28.75;;;13.77;;
40669;SDS011;26355;45.528;9.234;2022-10-19T08:26:28;25.45;;;14.02;;
40669;SDS011;26355;45.528;9.234;2022-10-19T08:29:02;25.05;;;13.18;;
40669;SDS011;26355;45.528;9.234;2022-10-19T08:31:39;26.83;;;14.80;;
40669;SDS011;26355;45.528;9.234;2022-10-19T08:34:05;27.60;;;15.43;;
40669;SDS011;26355;45.528;9.234;2022-10-19T08:36:31;26.67;;;14.80;;
40669;SDS011;26355;45.528;9.234;2022-10-19T08:38:59;25.98;;;15.07;;
40669;SDS011;26355;45.528;9.234;2022-10-19T08:41:28;26.63;;;14.32;;
40669;SDS011;26355;45.528;9.234;2022-10-19T08:49:30;28.20;;;16.67;;
40669;SDS011;26355;45.528;9.234;2022-10-19T08:51:57;27.42;;;14.55;;
40669;SDS011;26355;45.528;9.234;2022-10-19T08:54:29;32.30;;;17.48;;
40669;SDS011;26355;45.528;9.234;2022-10-19T08:59:58;30.35;;;17.60;;
40669;SDS011;26355;45.528;9.234;2022-10-19T09:05:13;29.67;;;17.48;;
40669;SDS011;26355;45.528;9.234;2022-10-19T09:08:09;29.75;;;17.58;;
40669;SDS011;26355;45.528;9.234;2022-10-19T09:10:36;31.17;;;16.75;;
40669;SDS011;26355;45.528;9.234;2022-10-19T09:15:49;31.20;;;17.05;;
40669;SDS011;26355;45.528;9.234;2022-10-19T09:18:23;29.27;;;17.25;;
40669;SDS011;26355;45.528;9.234;2022-10-19T09:20:54;29.30;;;16.90;;
40669;SDS011;26355;45.528;9.234;2022-10-19T09:26:31;29.80;;;17.33;;
40669;SDS011;26355;45.528;9.234;2022-10-19T09:31:57;29.17;;;16.77;;
40669;SDS011;26355;45.528;9.234;2022-10-19T09:34:26;31.67;;;17.88;;
40669;SDS011;26355;45.528;9.234;2022-10-19T09:36:56;30.80;;;17.42;;
40669;SDS011;26355;45.528;9.234;2022-10-19T09:39:27;31.33;;;18.02;;
40669;SDS011;26355;45.528;9.234;2022-10-19T09:41:55;27.70;;;17.23;;
40669;SDS011;26355;45.528;9.234;2022-10-19T09:44:22;29.23;;;18.25;;
40669;SDS011;26355;45.528;9.234;2022-10-19T09:52:22;26.85;;;17.10;;
40669;SDS011;26355;45.528;9.234;2022-10-19T09:55:01;29.92;;;17.80;;
40669;SDS011;26355;45.528;9.234;2022-10-19T09:57:47;30.63;;;19.07;;
40669;SDS011;26355;45.528;9.234;2022-10-19T10:00:24;31.98;;;18.52;;
40669;SDS011;26355;45.528;9.234;2022-10-19T10:02:56;32.65;;;19.92;;
40669;SDS011;26355;45.528;9.234;2022-10-19T10:05:28;36.58;;;20.90;;
40669;SDS011;26355;45.528;9.234;2022-10-19T10:07:57;31.23;;;19.02;;
40669;SDS011;26355;45.528;9.234;2022-10-19T10:10:25;31.25;;;19.33;;
40669;SDS011;26355;45.528;9.234;2022-10-19T10:12:53;29.65;;;18.58;;
40669;SDS011;26355;45.528;9.234;2022-10-19T10:15:24;30.97;;;18.50;;
40669;SDS011;26355;45.528;9.234;2022-10-19T10:17:51;30.58;;;19.83;;
40669;SDS011;26355;45.528;9.234;2022-10-19T10:20:29;32.35;;;20.27;;
40669;SDS011;26355;45.528;9.234;2022-10-19T10:25:25;30.73;;;18.45;;
40669;SDS011;26355;45.528;9.234;2022-10-19T10:28:00;31.33;;;18.50;;
40669;SDS011;26355;45.528;9.234;2022-10-19T10:30:30;32.10;;;19.30;;
40669;SDS011;26355;45.528;9.234;2022-10-19T10:32:59;34.92;;;20.50;;
40669;SDS011;26355;45.528;9.234;2022-10-19T10:35:30;28.75;;;18.50;;
40669;SDS011;26355;45.528;9.234;2022-10-19T10:38:06;29.92;;;18.73;;
40669;SDS011;26355;45.528;9.234;2022-10-19T10:40:57;31.75;;;19.70;;
40669;SDS011;26355;45.528;9.234;2022-10-19T10:43:30;30.45;;;18.67;;
40669;SDS011;26355;45.528;9.234;2022-10-19T10:46:03;31.05;;;19.58;;
40669;SDS011;26355;45.528;9.234;2022-10-19T10:48:38;30.67;;;18.88;;
40669;SDS011;26355;45.528;9.234;2022-10-19T10:54:08;29.60;;;18.58;;
40669;SDS011;26355;45.528;9.234;2022-10-19T10:56:42;26.92;;;16.08;;
40669;SDS011;26355;45.528;9.234;2022-10-19T10:59:23;28.65;;;16.02;;
40669;SDS011;26355;45.528;9.234;2022-10-19T11:04:58;27.30;;;16.88;;
40669;SDS011;26355;45.528;9.234;2022-10-19T11:07:30;27.25;;;18.60;;
40669;SDS011;26355;45.528;9.234;2022-10-19T11:10:01;33.08;;;19.45;;
40669;SDS011;26355;45.528;9.234;2022-10-19T11:12:45;31.02;;;19.02;;
40669;SDS011;26355;45.528;9.234;2022-10-19T11:16:23;29.98;;;19.17;;
40669;SDS011;26355;45.528;9.234;2022-10-19T11:18:43;28.75;;;18.90;;
40669;SDS011;26355;45.528;9.234;2022-10-19T11:21:21;32.67;;;19.55;;
40669;SDS011;26355;45.528;9.234;2022-10-19T11:26:42;29.75;;;17.63;;
40669;SDS011;26355;45.528;9.234;2022-10-19T11:31:54;33.33;;;19.27;;
40669;SDS011;26355;45.528;9.234;2022-10-19T11:34:36;30.40;;;16.85;;
40669;SDS011;26355;45.528;9.234;2022-10-19T11:40:04;29.85;;;18.40;;
40669;SDS011;26355;45.528;9.234;2022-10-19T11:43:04;38.25;;;19.30;;
40669;SDS011;26355;45.528;9.234;2022-10-19T11:48:20;32.22;;;19.48;;
40669;SDS011;26355;45.528;9.234;2022-10-19T11:51:33;31.05;;;19.52;;
40669;SDS011;26355;45.528;9.234;2022-10-19T11:56:45;32.03;;;19.08;;
40669;SDS011;26355;45.528;9.234;2022-10-19T12:05:05;31.70;;;18.75;;
40669;SDS011;26355;45.528;9.234;2022-10-19T12:11:08;35.25;;;21.40;;
40669;SDS011;26355;45.528;9.234;2022-10-19T12:13:08;31.42;;;20.67;;
40669;SDS011;26355;45.528;9.234;2022-10-19T12:15:38;33.28;;;20.88;;
40669;SDS011;26355;45.528;9.234;2022-10-19T13:15:50;33.45;;;21.73;;
40669;SDS011;26355;45.528;9.234;2022-10-19T13:24:30;32.60;;;21.85;;
40669;SDS011;26355;45.528;9.234;2022-10-19T13:29:50;27.77;;;18.98;;
40669;SDS011;26355;45.528;9.234;2022-10-19T13:40:38;27.90;;;17.00;;
40669;SDS011;26355;45.528;9.234;2022-10-19T13:48:31;29.20;;;18.63;;
40669;SDS011;26355;45.528;9.234;2022-10-19T13:57:15;30.20;;;19.27;;
40669;SDS011;26355;45.528;9.234;2022-10-19T14:05:42;33.03;;;22.30;;
40669;SDS011;26355;45.528;9.234;2022-10-19T14:11:03;33.08;;;22.65;;
40669;SDS011;26355;45.528;9.234;2022-10-19T14:13:41;31.58;;;21.20;;
40669;SDS011;26355;45.528;9.234;2022-10-19T14:16:14;34.05;;;21.00;;
40669;SDS011;26355;45.528;9.234;2022-10-19T14:18:43;32.47;;;21.55;;
40669;SDS011;26355;45.528;9.234;2022-10-19T14:21:33;35.20;;;21.23;;
40669;SDS011;26355;45.528;9.234;2022-10-19T14:24:01;33.97;;;20.92;;
40669;SDS011;26355;45.528;9.234;2022-10-19T14:26:27;34.08;;;22.25;;
40669;SDS011;26355;45.528;9.234;2022-10-19T14:28:55;34.85;;;22.70;;
40669;SDS011;26355;45.528;9.234;2022-10-19T14:31:23;32.38;;;21.13;;
40669;SDS011;26355;45.528;9.234;2022-10-19T14:33:55;33.45;;;21.58;;
40669;SDS011;26355;45.528;9.234;2022-10-19T14:36:26;33.55;;;21.92;;
40669;SDS011;26355;45.528;9.234;2022-10-19T14:38:59;34.97;;;23.15;;
40669;SDS011;26355;45.528;9.234;2022-10-19T14:43:57;41.85;;;26.50;;
40669;SDS011;26355;45.528;9.234;2022-10-19T14:46:28;35.75;;;23.73;;
40669;SDS011;26355;45.528;9.234;2022-10-19T14:49:02;39.08;;;26.42;;
40669;SDS011;26355;45.528;9.234;2022-10-19T14:51:51;39.30;;;27.10;;
40669;SDS011;26355;45.528;9.234;2022-10-19T14:59:31;39.00;;;25.75;;
40669;SDS011;26355;45.528;9.234;2022-10-19T15:02:19;36.65;;;24.38;;
40669;SDS011;26355;45.528;9.234;2022-10-19T15:04:51;40.28;;;25.10;;
40669;SDS011;26355;45.528;9.234;2022-10-19T15:07:20;37.65;;;25.45;;
40669;SDS011;26355;45.528;9.234;2022-10-19T15:09:53;38.17;;;24.55;;
40669;SDS011;26355;45.528;9.234;2022-10-19T15:12:33;41.13;;;26.73;;
40669;SDS011;26355;45.528;9.234;2022-10-19T15:17:53;40.47;;;26.48;;
40669;SDS011;26355;45.528;9.234;2022-10-19T15:20:24;40.17;;;25.55;;
40669;SDS011;26355;45.528;9.234;2022-10-19T15:22:56;39.13;;;25.58;;
40669;SDS011;26355;45.528;9.234;2022-10-19T15:27:47;40.42;;;26.10;;
40669;SDS011;26355;45.528;9.234;2022-10-19T15:32:46;39.72;;;27.70;;
40669;SDS011;26355;45.528;9.234;2022-10-19T15:35:33;38.13;;;27.85;;
40669;SDS011;26355;45.528;9.234;2022-10-19T15:40:30;39.75;;;27.23;;
40669;SDS011;26355;45.528;9.234;2022-10-19T15:42:58;39.53;;;28.85;;
40669;SDS011;26355;45.528;9.234;2022-10-19T15:50:42;43.53;;;30.20;;
40669;SDS011;26355;45.528;9.234;2022-10-19T15:53:09;43.78;;;27.70;;
40669;SDS011;26355;45.528;9.234;2022-10-19T15:55:35;40.78;;;27.00;;
40669;SDS011;26355;45.528;9.234;2022-10-19T15:58:00;43.70;;;29.27;;
40669;SDS011;26355;45.528;9.234;2022-10-19T16:00:27;43.03;;;29.67;;
40669;SDS011;26355;45.528;9.234;2022-10-19T16:02:53;43.00;;;28.25;;
40669;SDS011;26355;45.528;9.234;2022-10-19T16:05:19;43.90;;;29.75;;
40669;SDS011;26355;45.528;9.234;2022-10-19T16:07:45;44.28;;;29.15;;
40669;SDS011;26355;45.528;9.234;2022-10-19T16:10:15;45.22;;;31.25;;
40669;SDS011;26355;45.528;9.234;2022-10-19T16:12:43;44.50;;;29.98;;
40669;SDS011;26355;45.528;9.234;2022-10-19T16:15:12;41.40;;;29.48;;
40669;SDS011;26355;45.528;9.234;2022-10-19T16:17:53;51.58;;;29.13;;
40669;SDS011;26355;45.528;9.234;2022-10-19T16:20:22;40.53;;;27.95;;
40669;SDS011;26355;45.528;9.234;2022-10-19T16:22:48;42.63;;;30.33;;
40669;SDS011;26355;45.528;9.234;2022-10-19T16:25:15;47.22;;;31.77;;
40669;SDS011;26355;45.528;9.234;2022-10-19T16:27:41;43.17;;;31.00;;
40669;SDS011;26355;45.528;9.234;2022-10-19T16:30:07;44.90;;;31.48;;
40669;SDS011;26355;45.528;9.234;2022-10-19T16:32:33;48.05;;;30.83;;
40669;SDS011;26355;45.528;9.234;2022-10-19T16:34:59;45.00;;;30.05;;
40669;SDS011;26355;45.528;9.234;2022-10-19T16:37:24;42.28;;;29.85;;
40669;SDS011;26355;45.528;9.234;2022-10-19T16:39:50;41.35;;;28.98;;
40669;SDS011;26355;45.528;9.234;2022-10-19T16:42:15;46.80;;;30.58;;
40669;SDS011;26355;45.528;9.234;2022-10-19T16:44:41;46.22;;;31.33;;
40669;SDS011;26355;45.528;9.234;2022-10-19T16:47:06;44.55;;;31.23;;
40669;SDS011;26355;45.528;9.234;2022-10-19T16:49:32;49.75;;;32.10;;
40669;SDS011;26355;45.528;9.234;2022-10-19T16:51:57;47.83;;;32.97;;
40669;SDS011;26355;45.528;9.234;2022-10-19T16:54:25;48.53;;;31.65;;
40669;SDS011;26355;45.528;9.234;2022-10-19T16:56:53;44.42;;;31.55;;
40669;SDS011;26355;45.528;9.234;2022-10-19T16:59:19;46.75;;;32.97;;
40669;SDS011;26355;45.528;9.234;2022-10-19T17:01:45;50.58;;;32.88;;
40669;SDS011;26355;45.528;9.234;2022-10-19T17:04:12;43.42;;;30.98;;
40669;SDS011;26355;45.528;9.234;2022-10-19T17:09:05;50.67;;;32.67;;
40669;SDS011;26355;45.528;9.234;2022-10-19T17:11:32;47.67;;;32.67;;
40669;SDS011;26355;45.528;9.234;2022-10-19T17:14:00;50.40;;;33.42;;
40669;SDS011;26355;45.528;9.234;2022-10-19T17:16:27;53.83;;;35.17;;
40669;SDS011;26355;45.528;9.234;2022-10-19T17:18:55;46.05;;;31.20;;
40669;SDS011;26355;45.528;9.234;2022-10-19T17:21:22;45.85;;;30.65;;
40669;SDS011;26355;45.528;9.234;2022-10-19T17:23:50;45.15;;;29.80;;
40669;SDS011;26355;45.528;9.234;2022-10-19T17:26:17;44.03;;;27.73;;
40669;SDS011;26355;45.528;9.234;2022-10-19T17:28:43;48.47;;;29.52;;
40669;SDS011;26355;45.528;9.234;2022-10-19T17:31:10;46.40;;;30.63;;
40669;SDS011;26355;45.528;9.234;2022-10-19T17:33:37;42.72;;;30.13;;
40669;SDS011;26355;45.528;9.234;2022-10-19T17:47:57;50.00;;;33.05;;
40669;SDS011;26355;45.528;9.234;2022-10-19T17:50:23;50.80;;;33.60;;
40669;SDS011;26355;45.528;9.234;2022-10-19T17:52:48;63.65;;;35.72;;
40669;SDS011;26355;45.528;9.234;2022-10-19T17:55:14;50.08;;;33.92;;
40669;SDS011;26355;45.528;9.234;2022-10-19T17:57:40;51.42;;;34.22;;
40669;SDS011;26355;45.528;9.234;2022-10-19T18:00:05;53.53;;;34.70;;
40669;SDS011;26355;45.528;9.234;2022-10-19T18:02:32;46.47;;;32.78;;